This is the latest recevied weather packets stored in our database for station/object CE4JVU-10. If no packets are shown the sender has not sent any weather packets the latest 10 day(s).
| Time | Temp. | Humidity | Pressure | Rain* | Wind** | Luminosity | Snow |
|---|---|---|---|---|---|---|---|
| 1788651575 | 18.33° C | 39% | 979.5 hPa | - | - | - | - |
| 1788647975 | 19.44° C | 38% | 979.2 hPa | - | - | - | - |
| 1788647075 | 20° C | 38% | 979.2 hPa | - | - | - | - |
| 1788646175 | 20° C | 37% | 979.2 hPa | - | - | - | - |
| 1788645275 | 20.56° C | 37% | 979 hPa | - | - | - | - |
| 1788644374 | 20.56° C | 36% | 978.9 hPa | - | - | - | - |
| 1788643474 | 20.56° C | 36% | 978.8 hPa | - | - | - | - |
| 1788642574 | 20.56° C | 36% | 978.9 hPa | - | - | - | - |
| 1788640774 | 19.44° C | 34% | 979 hPa | - | - | - | - |
| 1788639874 | 19.44° C | 32% | 978.9 hPa | - | - | - | - |
| 1788638978 | 20° C | 32% | 979.1 hPa | - | - | - | - |
| 1788637178 | 20° C | 33% | 979 hPa | - | - | - | - |
| 1788636278 | 20° C | 34% | 979 hPa | - | - | - | - |
| 1788635378 | 20° C | 37% | 979 hPa | - | - | - | - |
| 1788634478 | 20° C | 37% | 979.1 hPa | - | - | - | - |
| 1788633578 | 20° C | 37% | 979.2 hPa | - | - | - | - |
| 1788632678 | 19.44° C | 38% | 979.3 hPa | - | - | - | - |
| 1788631777 | 18.89° C | 40% | 979.4 hPa | - | - | - | - |
| 1788630877 | 18.33° C | 42% | 979.6 hPa | - | - | - | - |
| 1788629977 | 17.78° C | 43% | 979.9 hPa | - | - | - | - |
| 1788629077 | 16.67° C | 44% | 980.1 hPa | - | - | - | - |
| 1788628177 | 16.11° C | 45% | 980.4 hPa | - | - | - | - |
| 1788627277 | 15.56° C | 47% | 980.6 hPa | - | - | - | - |
| 1788626377 | 15.56° C | 48% | 981 hPa | - | - | - | - |
| 1788625477 | 15.56° C | 48% | 981.1 hPa | - | - | - | - |
* Rain since midnight (hover to see other rain measurements)
** Current wind speed in m/s (hover to see current wind gust speed)